Time;durP1;ratioP1;P1;durP2;ratioP2;P2;SDS_P1;SDS_P2;PMS_P1;PMS_P2;Temp;Humidity;BMP_temperature;BMP_pressure;BME280_temperature;BME280_humidity;BME280_pressure;Samples;Min_cycle;Max_cycle;Signal;HPM_P1;HPM_P2
2024/01/25 00:00:29;;;;;;;27.10;3.20;;;;;;;8.81;82.22;101148.06;5029425;28;20035;-65
2024/01/25 00:02:54;;;;;;;21.53;2.60;;;;;;;8.83;82.34;101149.03;5032848;28;20560;-64
2024/01/25 00:05:19;;;;;;;18.35;2.70;;;;;;;8.83;83.40;101154.31;5026797;28;20034;-71
2024/01/25 00:07:49;;;;;;;17.13;2.20;;;;;;;8.82;83.44;101160.44;5028015;28;20111;-65
2024/01/25 00:10:16;;;;;;;23.23;2.65;;;;;;;8.82;82.11;101170.06;5026445;28;20580;-67
2024/01/25 00:12:42;;;;;;;24.98;2.45;;;;;;;8.82;81.88;101163.06;5028377;28;20041;-66
2024/01/25 00:15:09;;;;;;;14.63;2.10;;;;;;;8.83;82.65;101179.78;5027585;28;20140;-66
2024/01/25 00:17:35;;;;;;;10.77;2.38;;;;;;;8.83;82.69;101179.78;5025750;28;20061;-71
2024/01/25 00:20:05;;;;;;;22.52;2.55;;;;;;;8.85;83.85;101176.38;5026242;28;20044;-66
2024/01/25 00:22:30;;;;;;;19.40;2.83;;;;;;;8.83;84.36;101178.00;5021296;28;20056;-68
2024/01/25 00:24:55;;;;;;;18.67;2.90;;;;;;;8.84;84.57;101178.94;5030096;28;20073;-68
2024/01/25 00:27:21;;;;;;;14.17;2.00;;;;;;;8.85;83.84;101170.22;5025318;28;20494;-64
2024/01/25 00:29:46;;;;;;;16.17;3.10;;;;;;;8.85;84.24;101181.66;5025110;28;20041;-68
2024/01/25 00:32:12;;;;;;;13.27;1.53;;;;;;;8.88;82.71;101186.19;5024901;28;20033;-66
2024/01/25 00:36:49;;;;;;;11.07;2.03;;;;;;;8.92;83.79;101186.44;5121678;27;20908;-67
2024/01/25 00:39:15;;;;;;;11.60;1.60;;;;;;;8.91;84.47;101202.16;5120822;27;20069;-66
2024/01/25 00:41:43;;;;;;;11.73;1.93;;;;;;;8.93;85.70;101182.09;5123379;27;20031;-67
2024/01/25 00:44:12;;;;;;;18.73;1.85;;;;;;;8.96;84.61;101191.06;5120815;27;20067;-67
2024/01/25 00:46:37;;;;;;;13.15;1.70;;;;;;;9.00;84.86;101202.66;5113331;28;20067;-64
2024/01/25 00:49:03;;;;;;;24.03;3.63;;;;;;;8.99;82.57;101201.75;5121990;27;20124;-67
2024/01/25 00:51:28;;;;;;;10.57;2.17;;;;;;;8.99;83.32;101221.91;5121985;27;20091;-67
2024/01/25 00:53:54;;;;;;;13.63;1.90;;;;;;;8.98;82.19;101214.81;5121638;27;20039;-64
2024/01/25 00:56:19;;;;;;;17.53;2.53;;;;;;;9.02;81.16;101236.19;5120750;27;20382;-62
2024/01/25 00:58:48;;;;;;;14.00;2.20;;;;;;;9.02;79.96;101222.09;5122193;27;20047;-65
2024/01/25 01:01:13;;;;;;;14.87;2.00;;;;;;;9.04;80.55;101226.63;5121668;27;20480;-71
2024/01/25 01:03:39;;;;;;;20.65;2.92;;;;;;;9.03;80.84;101235.34;5123345;27;20027;-66
2024/01/25 01:06:05;;;;;;;12.70;2.50;;;;;;;9.01;81.28;101231.72;5124277;27;20051;-70
2024/01/25 01:08:30;;;;;;;16.52;1.88;;;;;;;9.00;82.02;101235.19;5123750;27;20024;-68
2024/01/25 01:10:56;;;;;;;13.37;1.93;;;;;;;9.01;81.04;101258.06;5124122;27;20119;-70
2024/01/25 01:13:21;;;;;;;21.17;2.40;;;;;;;9.02;80.89;101251.06;5123780;27;20073;-64
2024/01/25 01:15:46;;;;;;;16.70;2.67;;;;;;;9.03;80.65;101266.94;5123376;27;20035;-67
2024/01/25 01:18:12;;;;;;;14.57;1.83;;;;;;;9.03;81.92;101245.88;5123001;27;20060;-63
2024/01/25 01:20:37;;;;;;;11.20;2.07;;;;;;;9.00;82.41;101245.72;5122529;27;20114;-65
2024/01/25 01:23:03;;;;;;;14.30;2.00;;;;;;;9.03;82.50;101261.69;5121699;27;20123;-69
2024/01/25 01:25:28;;;;;;;22.75;2.03;;;;;;;9.03;81.85;101251.13;5122440;27;20027;-63
2024/01/25 01:27:53;;;;;;;16.13;2.60;;;;;;;9.04;80.34;101246.78;5123568;27;20130;-64
2024/01/25 01:30:19;;;;;;;17.13;2.63;;;;;;;9.01;79.65;101242.25;5123931;27;20438;-67
2024/01/25 01:32:44;;;;;;;7.40;1.30;;;;;;;9.00;78.85;101243.09;5124138;27;20403;-63
2024/01/25 01:35:10;;;;;;;17.73;2.13;;;;;;;8.98;78.58;101236.81;5122944;27;20522;-66
2024/01/25 01:37:35;;;;;;;12.98;2.35;;;;;;;8.99;78.60;101245.63;5123987;27;20035;-68
2024/01/25 01:40:01;;;;;;;22.03;2.23;;;;;;;8.99;78.77;101238.63;5123417;27;20126;-71
2024/01/25 01:42:27;;;;;;;10.40;1.60;;;;;;;8.98;78.91;101242.06;5121522;27;20530;-67
2024/01/25 01:44:53;;;;;;;12.27;1.85;;;;;;;8.93;79.44;101251.44;5121128;27;20057;-71
2024/01/25 01:47:19;;;;;;;15.18;1.80;;;;;;;8.93;79.58;101264.63;5111557;27;20501;-64
2024/01/25 01:49:44;;;;;;;12.80;2.07;;;;;;;8.92;80.29;101249.66;5108589;28;20039;-65
2024/01/25 01:52:11;;;;;;;16.63;2.40;;;;;;;8.90;80.48;101243.41;5109020;28;20084;-65
2024/01/25 01:54:37;;;;;;;12.60;2.15;;;;;;;8.91;80.68;101246.94;5108947;28;20031;-65
2024/01/25 01:57:03;;;;;;;14.93;2.25;;;;;;;8.88;78.92;101262.59;5108886;28;20070;-63
2024/01/25 01:59:29;;;;;;;22.77;3.30;;;;;;;8.88;79.74;101237.13;5108767;28;20024;-64
2024/01/25 02:01:54;;;;;;;20.17;1.85;;;;;;;8.86;79.36;101274.75;5109202;28;20036;-67
2024/01/25 02:04:19;;;;;;;16.33;2.13;;;;;;;8.89;78.10;101246.84;5108853;28;20047;-66
2024/01/25 02:06:45;;;;;;;11.37;1.53;;;;;;;8.88;77.38;101287.16;5108450;28;20114;-70
2024/01/25 02:09:14;;;;;;;14.05;1.88;;;;;;;8.87;77.82;101277.47;5108901;27;20499;-70
2024/01/25 02:11:39;;;;;;;13.67;2.07;;;;;;;8.87;77.82;101258.13;5109361;27;20041;-69
2024/01/25 02:14:06;;;;;;;17.80;2.43;;;;;;;8.85;77.19;101258.03;5109224;28;20042;-64
2024/01/25 02:16:31;;;;;;;16.00;2.20;;;;;;;8.86;77.63;101272.13;5100396;28;20305;-63
2024/01/25 02:18:59;;;;;;;20.73;2.28;;;;;;;8.85;78.24;101272.94;5108870;28;20555;-64
2024/01/25 02:21:25;;;;;;;21.57;2.27;;;;;;;8.83;78.55;101266.69;5108503;28;20492;-70
2024/01/25 02:23:50;;;;;;;9.70;1.80;;;;;;;8.85;78.12;101260.69;5108948;28;20054;-66
2024/01/25 02:26:16;;;;;;;16.50;2.90;;;;;;;8.86;78.35;101262.50;5108377;28;20327;-66
2024/01/25 02:28:41;;;;;;;18.93;3.07;;;;;;;8.88;78.11;101263.47;5108138;28;20042;-65
2024/01/25 02:31:12;;;;;;;22.85;2.50;;;;;;;8.85;79.58;101271.22;5105845;28;20047;-65
2024/01/25 02:33:40;;;;;;;16.53;2.37;;;;;;;8.83;79.22;101261.41;5108770;28;20455;-66
2024/01/25 02:36:07;;;;;;;15.40;2.53;;;;;;;8.85;78.35;101270.28;5107524;28;20663;-64
2024/01/25 02:38:32;;;;;;;12.60;2.43;;;;;;;8.85;77.99;101271.22;5108427;28;20142;-64
2024/01/25 02:40:57;;;;;;;20.13;2.73;;;;;;;8.87;78.24;101266.94;5108251;28;20050;-65
2024/01/25 02:43:23;;;;;;;21.17;2.30;;;;;;;8.84;77.79;101260.56;5108069;28;20027;-70
2024/01/25 02:48:04;;;;;;;14.18;2.47;;;;;;;8.78;79.13;101258.50;5103497;27;20448;-68
2024/01/25 02:50:29;;;;;;;17.20;2.33;;;;;;;8.78;79.89;101253.22;5079097;28;20037;-66
2024/01/25 02:52:55;;;;;;;12.63;1.40;;;;;;;8.78;79.17;101266.41;5069298;28;20056;-71
2024/01/25 02:55:21;;;;;;;17.30;2.03;;;;;;;8.78;79.03;101287.47;5052010;27;20077;-62
2024/01/25 02:57:46;;;;;;;23.33;3.27;;;;;;;8.79;77.34;101281.38;5007896;28;20050;-68
2024/01/25 03:00:13;;;;;;;14.57;2.70;;;;;;;8.77;76.57;101275.16;5001809;28;20053;-67
2024/01/25 03:02:38;;;;;;;11.25;1.88;;;;;;;8.77;76.63;101274.25;5009828;28;20034;-67
2024/01/25 03:05:04;;;;;;;11.33;1.80;;;;;;;8.76;77.39;101283.88;5002155;28;20459;-65
2024/01/25 03:07:29;;;;;;;9.60;1.50;;;;;;;8.76;79.13;101286.50;5010062;28;20092;-69
2024/01/25 03:09:54;;;;;;;22.67;2.47;;;;;;;8.74;80.19;101288.13;5001904;28;20042;-69
2024/01/25 03:12:20;;;;;;;17.15;2.30;;;;;;;8.73;79.59;101291.59;5018710;28;20120;-64
2024/01/25 03:14:45;;;;;;;15.70;2.07;;;;;;;8.73;78.02;101275.81;5002017;28;20046;-67
2024/01/25 03:17:12;;;;;;;16.23;2.87;;;;;;;8.71;76.74;101281.78;5010639;28;20521;-65
2024/01/25 03:19:37;;;;;;;23.30;2.13;;;;;;;8.70;78.62;101275.59;5041552;28;20045;-65
2024/01/25 03:22:03;;;;;;;13.17;1.40;;;;;;;8.68;78.72;101296.59;5009937;28;20041;-64
2024/01/25 03:24:28;;;;;;;20.97;2.57;;;;;;;8.68;78.45;101297.44;5012425;28;20045;-68
2024/01/25 03:26:53;;;;;;;16.80;2.45;;;;;;;8.68;77.93;101295.72;5037741;28;20561;-62
2024/01/25 03:29:19;;;;;;;18.67;2.60;;;;;;;8.66;79.45;101299.97;5000960;28;20042;-69
2024/01/25 03:31:45;;;;;;;18.60;2.20;;;;;;;8.64;77.59;101317.38;5001503;28;20034;-65
2024/01/25 03:34:10;;;;;;;22.35;2.35;;;;;;;8.65;78.10;101330.66;5008165;28;20057;-67
2024/01/25 03:36:36;;;;;;;19.53;2.33;;;;;;;8.68;76.25;101323.75;5000021;28;20034;-64
2024/01/25 03:39:02;;;;;;;16.77;2.53;;;;;;;8.65;76.04;101325.38;5000258;28;20065;-64
2024/01/25 03:41:29;;;;;;;16.08;2.25;;;;;;;8.64;77.00;101328.81;5007743;28;20053;-64
2024/01/25 03:43:54;;;;;;;14.98;2.25;;;;;;;8.65;76.20;101322.75;5008305;28;20036;-70
2024/01/25 03:46:19;;;;;;;18.57;2.93;;;;;;;8.64;76.07;101326.19;5000437;28;20501;-65
2024/01/25 03:48:45;;;;;;;20.37;2.73;;;;;;;8.64;75.73;101335.81;4999856;28;20342;-69
2024/01/25 03:51:10;;;;;;;11.90;1.80;;;;;;;8.63;76.80;101334.03;5014466;28;20401;-62
2024/01/25 03:53:36;;;;;;;9.10;1.57;;;;;;;8.59;75.26;101313.59;4999067;28;20044;-67
2024/01/25 03:56:01;;;;;;;18.43;2.23;;;;;;;8.60;74.89;101325.94;5006835;28;20111;-66
2024/01/25 03:58:26;;;;;;;14.63;1.52;;;;;;;8.58;75.57;101311.78;4983937;28;20057;-64
2024/01/25 04:00:52;;;;;;;10.00;1.60;;;;;;;8.53;76.26;101298.38;4991828;28;20128;-67
2024/01/25 04:03:17;;;;;;;21.37;2.97;;;;;;;8.53;77.36;101277.31;4980156;28;20109;-65
2024/01/25 04:05:43;;;;;;;17.20;1.87;;;;;;;8.53;76.64;101300.09;4992453;28;20030;-67
2024/01/25 04:08:08;;;;;;;21.10;2.72;;;;;;;8.49;76.36;101303.34;4986568;28;20890;-66
2024/01/25 04:13:00;;;;;;;11.95;1.98;;;;;;;8.50;76.72;101307.78;5056021;28;20378;-69
2024/01/25 04:15:25;;;;;;;14.38;1.77;;;;;;;8.51;76.54;101299.09;5040048;28;20041;-66
2024/01/25 04:17:52;;;;;;;16.13;2.40;;;;;;;8.54;76.25;101315.03;5040028;28;20441;-67
2024/01/25 04:20:18;;;;;;;18.27;2.45;;;;;;;8.51;76.47;101315.78;5038790;28;20049;-65
2024/01/25 04:22:44;;;;;;;18.17;2.43;;;;;;;8.53;77.25;101306.25;5020678;28;20045;-67
2024/01/25 04:25:10;;;;;;;13.40;2.03;;;;;;;8.51;76.32;101334.22;5020273;28;20041;-66
2024/01/25 04:27:37;;;;;;;15.55;2.95;;;;;;;8.51;77.08;101333.31;5028812;28;20509;-65
2024/01/25 04:30:03;;;;;;;15.27;1.75;;;;;;;8.48;75.86;101334.06;5039113;28;20114;-65
2024/01/25 04:32:28;;;;;;;18.50;2.60;;;;;;;8.49;75.14;101337.56;5036784;28;20057;-67
2024/01/25 04:34:54;;;;;;;11.70;1.65;;;;;;;8.49;75.39;101350.72;5026377;28;20486;-62
2024/01/25 04:37:19;;;;;;;12.40;2.00;;;;;;;8.51;75.75;101357.00;5035616;28;20132;-67
2024/01/25 04:39:45;;;;;;;14.50;2.07;;;;;;;8.49;76.93;101335.84;5019519;28;20520;-63
2024/01/25 04:42:10;;;;;;;16.83;2.50;;;;;;;8.49;76.25;101350.72;5028277;28;20124;-63
2024/01/25 04:44:35;;;;;;;20.43;2.47;;;;;;;8.54;75.30;101367.69;5025431;28;20557;-66
2024/01/25 04:47:01;;;;;;;12.02;1.70;;;;;;;8.51;74.71;101346.47;5036648;28;20049;-62
2024/01/25 04:49:26;;;;;;;25.60;2.67;;;;;;;8.49;74.97;101367.44;5033779;28;20512;-67
2024/01/25 04:51:51;;;;;;;15.77;2.47;;;;;;;8.46;75.88;101364.63;5048233;28;20026;-66
2024/01/25 04:54:17;;;;;;;13.07;1.87;;;;;;;8.47;74.80;101361.19;5033736;28;20501;-63
2024/01/25 04:56:43;;;;;;;16.20;2.10;;;;;;;8.48;74.08;101362.09;5041172;28;20040;-64
2024/01/25 04:59:08;;;;;;;14.53;2.07;;;;;;;8.47;74.08;101355.00;5033308;28;20128;-65
2024/01/25 05:01:34;;;;;;;13.13;1.73;;;;;;;8.46;74.15;101374.25;5037123;28;20026;-66
2024/01/25 05:04:01;;;;;;;19.37;1.93;;;;;;;8.44;74.83;101354.81;5029409;28;20064;-65
2024/01/25 05:06:26;;;;;;;12.52;1.70;;;;;;;8.40;74.80;101359.00;5022758;28;20108;-67
2024/01/25 05:08:53;;;;;;;15.60;1.97;;;;;;;8.38;75.11;101365.00;5022708;28;20046;-66
2024/01/25 05:11:18;;;;;;;12.23;2.38;;;;;;;8.35;75.05;101356.91;5026678;28;20453;-64
2024/01/25 05:13:43;;;;;;;21.07;2.63;;;;;;;8.35;75.16;101359.53;5041766;28;20037;-65
2024/01/25 05:16:09;;;;;;;13.40;3.00;;;;;;;8.34;75.30;101358.63;5033607;28;20108;-63
2024/01/25 05:18:34;;;;;;;17.87;2.00;;;;;;;8.34;75.04;101365.66;5038708;28;20033;-64
2024/01/25 05:21:00;;;;;;;17.58;2.10;;;;;;;8.33;75.03;101374.34;5021724;28;20053;-68
2024/01/25 05:23:25;;;;;;;21.57;2.80;;;;;;;8.35;74.43;101401.66;5016834;28;20045;-62
2024/01/25 05:25:51;;;;;;;12.70;1.87;;;;;;;8.34;74.29;101403.38;5020619;28;20116;-64
2024/01/25 05:28:16;;;;;;;13.37;1.60;;;;;;;8.34;74.53;101389.31;5019575;28;20044;-67
2024/01/25 05:30:41;;;;;;;26.37;2.27;;;;;;;8.34;74.67;101399.84;5009313;28;20030;-64
2024/01/25 05:33:07;;;;;;;25.43;2.00;;;;;;;8.35;74.24;101392.03;5015924;28;20291;-68
2024/01/25 05:35:34;;;;;;;14.67;2.87;;;;;;;8.34;74.79;101406.00;5016935;28;20029;-68
2024/01/25 05:38:00;;;;;;;12.77;1.63;;;;;;;8.35;74.60;101425.34;5017391;28;20045;-64
2024/01/25 05:40:25;;;;;;;15.83;1.70;;;;;;;8.32;75.56;101419.91;5019396;28;20046;-69
2024/01/25 05:42:51;;;;;;;15.37;2.63;;;;;;;8.33;75.33;101433.16;5034644;28;20052;-65
2024/01/25 05:45:19;;;;;;;16.98;2.40;;;;;;;8.33;75.46;101445.41;5027726;28;20589;-62
2024/01/25 05:47:45;;;;;;;17.47;2.03;;;;;;;8.32;75.85;101444.50;5015270;28;20041;-66
2024/01/25 05:50:10;;;;;;;12.30;2.10;;;;;;;8.32;75.92;101446.22;5032707;28;20036;-64
2024/01/25 05:52:37;;;;;;;14.57;1.80;;;;;;;8.32;75.15;101455.03;5024355;28;20944;-66
2024/01/25 05:55:05;;;;;;;14.32;2.45;;;;;;;8.34;75.20;101453.38;5016533;28;20069;-67
2024/01/25 05:57:30;;;;;;;20.48;2.53;;;;;;;8.33;75.14;101456.84;5011498;28;20961;-66
2024/01/25 06:02:24;;;;;;;20.58;2.38;;;;;;;8.32;74.89;101448.84;5006840;28;20434;-64
2024/01/25 06:04:49;;;;;;;15.53;1.80;;;;;;;8.34;74.86;101455.13;4997683;28;20034;-64
2024/01/25 06:07:15;;;;;;;15.02;2.92;;;;;;;8.36;74.39;101466.63;4997400;28;20042;-63
2024/01/25 06:09:40;;;;;;;13.13;2.07;;;;;;;8.37;74.51;101465.84;4998505;28;20041;-69
2024/01/25 06:12:06;;;;;;;17.13;2.37;;;;;;;8.38;74.88;101465.03;4981701;28;20066;-64
2024/01/25 06:14:31;;;;;;;15.77;2.15;;;;;;;8.36;74.63;101471.91;5006329;28;20034;-67
2024/01/25 06:16:57;;;;;;;13.73;1.90;;;;;;;8.35;74.29;101457.81;5001435;28;20118;-65
2024/01/25 06:19:22;;;;;;;15.27;2.70;;;;;;;8.34;73.99;101463.91;5005054;28;20045;-70
2024/01/25 06:21:48;;;;;;;19.97;2.13;;;;;;;8.32;73.91;101460.28;4979292;28;20062;-67
2024/01/25 06:24:13;;;;;;;18.57;2.57;;;;;;;8.32;74.39;101475.16;4991667;28;20104;-65
2024/01/25 06:29:09;;;;;;;18.10;2.00;;;;;;;8.30;74.65;101487.31;5064903;28;20427;-68
2024/01/25 06:31:42;;;;;;;12.87;2.30;;;;;;;8.28;74.56;101503.00;5048040;28;20059;-70
2024/01/25 06:34:07;;;;;;;14.15;2.50;;;;;;;8.27;74.71;101493.28;5043623;28;20494;-68
2024/01/25 06:36:32;;;;;;;18.37;2.23;;;;;;;8.25;74.34;101476.47;5040024;28;20037;-71
2024/01/25 06:38:58;;;;;;;11.02;1.90;;;;;;;8.24;74.29;101493.97;5039712;28;20132;-66
2024/01/25 06:41:23;;;;;;;14.90;1.93;;;;;;;8.25;74.83;101502.78;5039707;28;20611;-66
2024/01/25 06:43:48;;;;;;;19.40;2.70;;;;;;;8.22;74.88;101508.78;5039773;28;20144;-71
2024/01/25 06:46:14;;;;;;;16.67;2.07;;;;;;;8.24;74.61;101517.66;5039380;28;20560;-65
2024/01/25 06:48:39;;;;;;;15.67;2.93;;;;;;;8.25;74.86;101498.44;5046494;28;20053;-69
2024/01/25 06:51:05;;;;;;;15.93;2.28;;;;;;;8.28;73.93;101504.72;5046725;28;20628;-65
2024/01/25 06:53:30;;;;;;;15.03;1.73;;;;;;;8.30;73.75;101516.25;5039412;28;20087;-64
2024/01/25 06:55:55;;;;;;;17.83;2.03;;;;;;;8.30;74.28;101525.06;5035846;28;20112;-68
2024/01/25 06:58:21;;;;;;;9.73;1.60;;;;;;;8.30;74.57;101524.16;5037854;28;20124;-64
2024/01/25 07:00:46;;;;;;;20.03;2.10;;;;;;;8.29;74.16;101543.38;5043670;28;20106;-63
2024/01/25 07:03:12;;;;;;;11.55;1.45;;;;;;;8.28;74.30;101536.28;5043045;28;20037;-67
2024/01/25 07:05:38;;;;;;;17.13;1.80;;;;;;;8.30;74.36;101538.22;5046847;28;20048;-69
2024/01/25 07:08:03;;;;;;;26.13;2.53;;;;;;;8.29;74.50;101532.84;5039809;28;20075;-63
2024/01/25 07:10:29;;;;;;;16.53;2.10;;;;;;;8.28;74.80;101531.94;5039841;28;20091;-65
2024/01/25 07:12:54;;;;;;;15.23;3.05;;;;;;;8.29;74.54;101549.53;5039312;28;20397;-64
2024/01/25 07:15:20;;;;;;;19.93;1.90;;;;;;;8.32;74.39;101560.31;5039413;28;20040;-65
2024/01/25 07:17:45;;;;;;;15.60;2.70;;;;;;;8.31;74.49;101568.09;5039093;28;20029;-68
2024/01/25 07:20:11;;;;;;;15.32;1.65;;;;;;;8.29;75.08;101560.06;5039194;28;20700;-63
2024/01/25 07:22:37;;;;;;;17.37;1.53;;;;;;;8.29;75.07;101554.78;5045720;28;20076;-65
2024/01/25 07:25:02;;;;;;;18.83;2.00;;;;;;;8.30;75.29;101550.47;5038972;28;20041;-64
2024/01/25 07:27:28;;;;;;;17.73;2.40;;;;;;;8.29;75.31;101553.91;5039090;28;20033;-66
2024/01/25 07:29:53;;;;;;;14.50;3.10;;;;;;;8.28;75.60;101560.91;5038978;28;20182;-63
2024/01/25 07:32:19;;;;;;;14.00;2.50;;;;;;;8.29;75.50;101580.22;5039358;28;20414;-65
2024/01/25 07:34:45;;;;;;;14.03;2.50;;;;;;;8.30;75.46;101584.69;5042768;28;20764;-63
2024/01/25 07:37:11;;;;;;;13.68;1.73;;;;;;;8.31;75.39;101594.41;5038552;28;20060;-64
2024/01/25 07:39:36;;;;;;;14.07;2.05;;;;;;;8.31;75.56;101602.31;5031022;28;20478;-63
2024/01/25 07:42:02;;;;;;;22.33;2.77;;;;;;;8.31;75.63;101599.69;5026835;28;20041;-66
2024/01/25 07:44:27;;;;;;;19.23;2.17;;;;;;;8.31;75.72;101599.69;5026729;28;20049;-64
2024/01/25 07:46:53;;;;;;;16.00;2.80;;;;;;;8.31;75.85;101605.84;5025269;28;20591;-65
2024/01/25 07:49:18;;;;;;;16.50;1.93;;;;;;;8.29;75.79;101607.44;5025761;28;20120;-68
2024/01/25 07:51:43;;;;;;;18.17;2.27;;;;;;;8.32;76.42;101625.19;5037090;28;20791;-64
2024/01/25 07:54:09;;;;;;;17.40;2.23;;;;;;;8.33;76.00;101611.22;5028589;28;20029;-65
2024/01/25 07:56:35;;;;;;;15.13;2.00;;;;;;;8.32;75.91;101627.81;5026383;28;20120;-63
2024/01/25 07:59:00;;;;;;;17.20;2.33;;;;;;;8.32;75.86;101630.47;5029400;28;20045;-64
2024/01/25 08:01:25;;;;;;;15.57;2.33;;;;;;;8.34;75.49;101640.25;5040690;28;20048;-66
2024/01/25 08:03:51;;;;;;;28.10;3.80;;;;;;;8.35;75.81;101628.91;5025231;28;20132;-64
2024/01/25 08:06:16;;;;;;;16.63;2.20;;;;;;;8.35;76.00;101633.28;5032981;28;20120;-66
2024/01/25 08:08:42;;;;;;;14.20;2.50;;;;;;;8.37;76.08;101634.28;5025271;28;20323;-67
2024/01/25 08:11:08;;;;;;;19.23;2.23;;;;;;;8.38;75.57;101650.19;5025562;28;20453;-63
2024/01/25 08:13:33;;;;;;;14.30;1.85;;;;;;;8.40;76.11;101645.91;5024831;28;20033;-63
2024/01/25 08:15:58;;;;;;;18.57;2.70;;;;;;;8.41;76.26;101649.47;5024861;28;20052;-68
2024/01/25 08:18:24;;;;;;;13.20;2.30;;;;;;;8.44;75.95;101649.66;5025155;28;20033;-63
2024/01/25 08:20:50;;;;;;;15.25;1.88;;;;;;;8.43;75.97;101675.09;5025997;28;20034;-65
2024/01/25 08:23:16;;;;;;;15.10;1.93;;;;;;;8.43;76.41;101667.19;5022682;28;20102;-64
2024/01/25 08:25:41;;;;;;;12.25;1.58;;;;;;;8.45;76.66;101685.69;5025762;28;20047;-63
2024/01/25 08:28:07;;;;;;;14.97;2.13;;;;;;;8.45;76.39;101683.97;5027092;28;20034;-66
2024/01/25 08:30:33;;;;;;;14.88;1.80;;;;;;;8.45;76.15;101677.78;5019883;28;20548;-68
2024/01/25 08:32:58;;;;;;;16.67;2.37;;;;;;;8.46;76.41;101687.53;5035074;28;20387;-65
2024/01/25 08:35:23;;;;;;;19.87;2.53;;;;;;;8.45;75.84;101678.72;5029186;28;20056;-63
2024/01/25 08:37:50;;;;;;;15.25;3.47;;;;;;;8.47;75.93;101691.97;5028324;28;20171;-67
2024/01/25 08:40:15;;;;;;;20.10;2.13;;;;;;;8.50;75.93;101707.97;5024805;28;20538;-66
2024/01/25 08:42:40;;;;;;;21.38;2.35;;;;;;;8.51;76.09;101694.91;5024632;28;20037;-64
2024/01/25 08:45:08;;;;;;;21.13;2.20;;;;;;;8.51;76.34;101699.25;5024902;28;20164;-66
2024/01/25 08:47:37;;;;;;;17.50;2.60;;;;;;;8.53;76.40;101701.19;5024498;28;20037;-65
2024/01/25 08:50:05;;;;;;;14.50;2.57;;;;;;;8.56;76.09;101709.28;5031762;28;20533;-65
2024/01/25 08:52:30;;;;;;;9.25;1.98;;;;;;;8.58;76.22;101718.16;5024805;28;20037;-66
2024/01/25 08:54:56;;;;;;;16.70;2.05;;;;;;;8.57;75.75;101723.34;5025078;28;20520;-65
2024/01/25 08:57:21;;;;;;;15.40;1.63;;;;;;;8.58;74.94;101728.69;5025404;28;20039;-68
2024/01/25 08:59:47;;;;;;;10.50;1.60;;;;;;;8.60;74.70;101718.28;5030192;28;20116;-65
2024/01/25 09:02:12;;;;;;;16.77;2.07;;;;;;;8.62;74.72;101730.75;5033728;28;20037;-66
2024/01/25 09:04:37;;;;;;;14.70;2.40;;;;;;;8.66;74.76;101731.84;5026519;28;20139;-65
2024/01/25 09:07:03;;;;;;;17.10;2.37;;;;;;;8.68;74.76;101720.56;5024849;28;20456;-65
2024/01/25 09:09:28;;;;;;;13.83;1.63;;;;;;;8.71;75.12;101722.50;5025654;28;20284;-68
2024/01/25 09:11:54;;;;;;;15.67;2.33;;;;;;;8.76;75.13;101725.44;5025540;28;20033;-66
2024/01/25 09:14:19;;;;;;;15.27;2.10;;;;;;;8.81;75.17;101726.66;5025565;28;20128;-68
2024/01/25 09:16:45;;;;;;;14.32;1.88;;;;;;;8.84;74.97;101732.09;5026082;28;20044;-65
2024/01/25 09:19:10;;;;;;;15.57;2.00;;;;;;;8.85;75.33;101741.81;5025539;28;20033;-66
2024/01/25 09:21:38;;;;;;;17.07;2.23;;;;;;;8.86;74.82;101752.47;5026026;28;20059;-66
2024/01/25 09:24:04;;;;;;;13.68;1.60;;;;;;;8.89;74.18;101751.72;5026186;28;20033;-66
2024/01/25 09:26:29;;;;;;;15.40;2.17;;;;;;;8.86;74.38;101751.56;5025643;28;20040;-68
2024/01/25 09:28:54;;;;;;;16.77;2.03;;;;;;;8.90;74.67;101743.03;5026050;28;20045;-67
2024/01/25 09:31:20;;;;;;;14.53;1.67;;;;;;;8.96;74.21;101753.97;5025652;28;20552;-65
2024/01/25 09:33:45;;;;;;;10.57;1.90;;;;;;;9.00;74.11;101750.69;5029835;28;20037;-68
2024/01/25 09:36:11;;;;;;;14.73;1.70;;;;;;;9.01;73.06;101757.78;5025772;28;20516;-64
2024/01/25 09:38:36;;;;;;;9.20;1.10;;;;;;;9.03;73.12;101756.16;5026478;28;20043;-64
2024/01/25 09:41:02;;;;;;;13.37;1.67;;;;;;;9.03;72.85;101762.34;5026245;28;20383;-64
2024/01/25 09:43:27;;;;;;;16.93;1.90;;;;;;;9.01;72.88;101763.97;5024265;28;20033;-64
2024/01/25 09:45:54;;;;;;;18.27;2.05;;;;;;;9.02;72.48;101768.44;5023433;28;20919;-66
2024/01/25 09:48:20;;;;;;;9.17;1.30;;;;;;;8.99;72.45;101770.88;5023252;28;20041;-66
2024/01/25 09:50:48;;;;;;;15.27;2.90;;;;;;;9.03;72.47;101772.88;5030786;28;20552;-64
2024/01/25 09:53:22;;;;;;;13.20;1.87;;;;;;;9.02;72.39;101776.34;5024021;28;20045;-64
2024/01/25 09:56:11;;;;;;;15.27;2.03;;;;;;;9.01;72.43;101789.41;5023025;28;20041;-68
2024/01/25 09:58:39;;;;;;;19.83;1.73;;;;;;;8.99;72.40;101791.94;5043683;28;20037;-65
2024/01/25 10:01:09;;;;;;;12.45;1.73;;;;;;;8.97;72.05;101803.22;5029660;28;20127;-69
2024/01/25 10:03:35;;;;;;;21.25;1.88;;;;;;;8.95;72.34;101805.75;5015316;28;20041;-68
2024/01/25 10:06:00;;;;;;;16.23;1.60;;;;;;;8.95;72.13;101791.66;5022855;28;20071;-66
2024/01/25 10:08:25;;;;;;;10.95;1.88;;;;;;;8.95;72.17;101800.47;5022987;28;20041;-67
2024/01/25 10:10:53;;;;;;;14.60;2.27;;;;;;;8.95;71.98;101794.28;5023193;28;20134;-66
2024/01/25 10:13:19;;;;;;;12.77;2.30;;;;;;;8.94;71.82;101782.84;5022881;28;20502;-69
2024/01/25 10:15:46;;;;;;;21.10;2.40;;;;;;;8.98;72.01;101805.00;5022694;28;20037;-65
2024/01/25 10:18:13;;;;;;;16.50;1.88;;;;;;;9.01;71.26;101805.22;5023439;28;20253;-64
2024/01/25 10:20:47;;;;;;;24.10;2.15;;;;;;;9.08;71.08;101796.88;5022703;28;20846;-70
2024/01/25 10:23:12;;;;;;;14.02;2.30;;;;;;;9.11;71.29;101789.19;5022923;28;20045;-66
2024/01/25 10:25:38;;;;;;;11.83;2.10;;;;;;;9.18;71.25;101798.38;5022677;28;20418;-64
2024/01/25 10:28:05;;;;;;;12.23;1.63;;;;;;;9.16;70.20;101800.03;5022766;28;20041;-66
2024/01/25 10:30:35;;;;;;;12.18;1.85;;;;;;;9.17;70.22;101805.41;5022807;28;20057;-68
2024/01/25 10:33:02;;;;;;;15.77;2.08;;;;;;;9.21;70.41;101810.03;5025495;28;20063;-64
2024/01/25 10:35:29;;;;;;;11.68;1.70;;;;;;;9.27;70.72;101810.44;5023325;28;20041;-65
2024/01/25 10:37:54;;;;;;;13.10;1.90;;;;;;;9.33;70.45;101794.06;5024334;28;20516;-65
2024/01/25 10:40:20;;;;;;;15.97;2.03;;;;;;;9.38;70.71;101808.44;5030797;28;20123;-65
2024/01/25 10:42:46;;;;;;;11.15;1.80;;;;;;;9.39;70.66;101805.00;5022233;28;20057;-66
2024/01/25 10:45:12;;;;;;;14.88;2.13;;;;;;;9.38;70.25;101813.72;5022378;28;20080;-66
2024/01/25 10:47:40;;;;;;;17.47;1.93;;;;;;;9.41;70.27;101813.94;5022434;28;20044;-68
2024/01/25 10:50:09;;;;;;;10.55;1.52;;;;;;;9.43;69.74;101821.09;5029923;28;20037;-65
2024/01/25 10:52:35;;;;;;;14.80;1.75;;;;;;;9.42;69.23;101819.28;5015169;28;20408;-64
2024/01/25 10:55:03;;;;;;;11.25;1.60;;;;;;;9.46;69.33;101816.03;5021756;28;20549;-66
2024/01/25 10:57:35;;;;;;;14.17;1.90;;;;;;;9.61;69.48;101824.00;5022412;28;20041;-67
2024/01/25 11:00:03;;;;;;;12.23;2.20;;;;;;;9.69;69.14;101842.91;5022287;28;20103;-65
2024/01/25 11:02:29;;;;;;;15.65;2.13;;;;;;;9.64;68.67;101823.25;5029998;28;20041;-66
2024/01/25 11:04:55;;;;;;;16.07;2.17;;;;;;;9.65;69.02;101849.72;5022201;28;20041;-65
2024/01/25 11:07:21;;;;;;;13.05;1.80;;;;;;;9.62;68.64;101838.97;5023054;28;20540;-65
2024/01/25 11:09:51;;;;;;;13.73;2.00;;;;;;;9.63;68.72;101842.53;5022273;28;20076;-64
2024/01/25 11:12:18;;;;;;;13.13;1.83;;;;;;;9.59;68.37;101836.16;5022205;28;20076;-66
2024/01/25 11:14:43;;;;;;;22.40;2.38;;;;;;;9.63;68.59;101822.34;5029204;28;20132;-66
2024/01/25 11:17:21;;;;;;;17.63;1.97;;;;;;;9.71;68.79;101826.38;5026404;28;20041;-69
2024/01/25 11:19:50;;;;;;;11.10;2.00;;;;;;;9.78;68.31;101817.09;5027473;28;20041;-63
2024/01/25 11:22:16;;;;;;;13.02;1.70;;;;;;;9.85;68.07;101819.28;5028699;28;20056;-66
2024/01/25 11:24:42;;;;;;;16.43;2.27;;;;;;;9.91;67.32;101831.16;5028196;28;20049;-64
2024/01/25 11:27:10;;;;;;;19.17;2.05;;;;;;;9.84;67.34;101822.75;5026326;28;20033;-64
2024/01/25 11:29:36;;;;;;;14.50;1.98;;;;;;;9.88;66.95;101816.81;5018066;28;20114;-65